Terminal Aerodrome Forecast
Issued by NWS

Home | Current Version | Previous Version | Text Only | Print | Product List | Glossary On
Versions: 1 2 3 4 5 6 7 8 9 10 11 12 13 14 15
065
FTUS43 KMQT 301731
TAFIWD
TAF
KIWD 301731Z 3018/0118 08010KT P6SM BKN100
     FM302200 07011KT 6SM BR VCSH OVC040
     FM010400 07010KT P6SM -SHRA OVC040 WS015/09035KT
     FM010700 06010KT P6SM -SHRA OVC020 WS015/07040KT
     FM010900 06011KT P6SM -SHRA OVC008 WS020/07035KT
     FM011100 05011G22KT 5SM -SHRA OVC005=

USA.gov is the U.S. government's official web portal to all federal, state and local government web resources and services.